sensor_id;sensor_type;location;lat;lon;timestamp;temperature;humidity
3994;DHT22;2011;48.238;13.948;2023-11-19T00:00:17;4.40;99.90
3994;DHT22;2011;48.238;13.948;2023-11-19T00:02:45;4.40;99.90
3994;DHT22;2011;48.238;13.948;2023-11-19T00:05:13;4.40;99.90
3994;DHT22;2011;48.238;13.948;2023-11-19T00:07:40;4.40;99.90
3994;DHT22;2011;48.238;13.948;2023-11-19T00:10:08;4.40;99.90
3994;DHT22;2011;48.238;13.948;2023-11-19T00:12:37;4.30;99.90
3994;DHT22;2011;48.238;13.948;2023-11-19T00:15:05;4.40;99.90
3994;DHT22;2011;48.238;13.948;2023-11-19T00:17:32;4.30;99.90
3994;DHT22;2011;48.238;13.948;2023-11-19T00:20:00;4.30;99.90
3994;DHT22;2011;48.238;13.948;2023-11-19T00:22:31;4.20;99.90
3994;DHT22;2011;48.238;13.948;2023-11-19T00:24:59;4.30;99.90
3994;DHT22;2011;48.238;13.948;2023-11-19T00:27:26;4.30;99.90
3994;DHT22;2011;48.238;13.948;2023-11-19T00:29:53;4.20;99.90
3994;DHT22;2011;48.238;13.948;2023-11-19T00:32:21;4.30;99.90
3994;DHT22;2011;48.238;13.948;2023-11-19T00:34:48;4.20;99.90
3994;DHT22;2011;48.238;13.948;2023-11-19T00:37:16;4.20;99.90
3994;DHT22;2011;48.238;13.948;2023-11-19T00:39:43;4.20;99.90
3994;DHT22;2011;48.238;13.948;2023-11-19T00:42:11;4.20;99.90
3994;DHT22;2011;48.238;13.948;2023-11-19T00:44:39;4.20;99.90
3994;DHT22;2011;48.238;13.948;2023-11-19T00:47:06;4.10;99.90
3994;DHT22;2011;48.238;13.948;2023-11-19T00:49:33;4.10;99.90
3994;DHT22;2011;48.238;13.948;2023-11-19T00:52:01;4.10;99.90
3994;DHT22;2011;48.238;13.948;2023-11-19T00:54:30;4.10;99.90
3994;DHT22;2011;48.238;13.948;2023-11-19T00:56:57;4.20;99.90
3994;DHT22;2011;48.238;13.948;2023-11-19T00:59:24;4.20;99.90
3994;DHT22;2011;48.238;13.948;2023-11-19T01:01:51;4.20;99.90
3994;DHT22;2011;48.238;13.948;2023-11-19T01:04:18;4.20;99.90
3994;DHT22;2011;48.238;13.948;2023-11-19T01:06:45;4.20;99.90
3994;DHT22;2011;48.238;13.948;2023-11-19T01:09:12;4.20;99.90
3994;DHT22;2011;48.238;13.948;2023-11-19T01:11:40;4.20;99.90
3994;DHT22;2011;48.238;13.948;2023-11-19T01:14:07;4.20;99.90
3994;DHT22;2011;48.238;13.948;2023-11-19T01:16:34;4.20;99.90
3994;DHT22;2011;48.238;13.948;2023-11-19T01:19:02;4.20;99.90
3994;DHT22;2011;48.238;13.948;2023-11-19T01:21:30;4.20;99.90
3994;DHT22;2011;48.238;13.948;2023-11-19T01:23:57;4.20;99.90
3994;DHT22;2011;48.238;13.948;2023-11-19T01:26:25;4.10;99.90
3994;DHT22;2011;48.238;13.948;2023-11-19T01:28:53;4.20;99.90
3994;DHT22;2011;48.238;13.948;2023-11-19T01:31:20;4.20;99.90
3994;DHT22;2011;48.238;13.948;2023-11-19T01:33:47;4.20;99.90
3994;DHT22;2011;48.238;13.948;2023-11-19T01:36:14;4.30;99.90
3994;DHT22;2011;48.238;13.948;2023-11-19T01:38:41;4.30;99.90
3994;DHT22;2011;48.238;13.948;2023-11-19T01:41:09;4.30;99.90
3994;DHT22;2011;48.238;13.948;2023-11-19T01:43:37;4.30;99.90
3994;DHT22;2011;48.238;13.948;2023-11-19T01:46:06;4.30;99.90
3994;DHT22;2011;48.238;13.948;2023-11-19T01:48:37;4.30;99.90
3994;DHT22;2011;48.238;13.948;2023-11-19T01:51:07;4.30;99.90
3994;DHT22;2011;48.238;13.948;2023-11-19T01:53:36;4.40;99.90
3994;DHT22;2011;48.238;13.948;2023-11-19T01:56:06;4.40;99.90
3994;DHT22;2011;48.238;13.948;2023-11-19T01:58:35;4.40;99.90
3994;DHT22;2011;48.238;13.948;2023-11-19T02:01:03;4.40;99.90
3994;DHT22;2011;48.238;13.948;2023-11-19T02:03:32;4.40;99.90
3994;DHT22;2011;48.238;13.948;2023-11-19T02:06:00;4.50;99.90
3994;DHT22;2011;48.238;13.948;2023-11-19T02:08:27;4.50;99.90
3994;DHT22;2011;48.238;13.948;2023-11-19T02:10:54;4.50;99.90
3994;DHT22;2011;48.238;13.948;2023-11-19T02:13:22;4.50;99.90
3994;DHT22;2011;48.238;13.948;2023-11-19T02:15:50;4.50;99.90
3994;DHT22;2011;48.238;13.948;2023-11-19T02:18:18;4.50;99.90
3994;DHT22;2011;48.238;13.948;2023-11-19T02:20:47;4.60;99.90
3994;DHT22;2011;48.238;13.948;2023-11-19T02:23:14;4.60;99.90
3994;DHT22;2011;48.238;13.948;2023-11-19T02:25:41;4.60;99.90
3994;DHT22;2011;48.238;13.948;2023-11-19T02:28:10;4.60;99.90
3994;DHT22;2011;48.238;13.948;2023-11-19T02:30:38;4.60;99.90
3994;DHT22;2011;48.238;13.948;2023-11-19T02:33:05;4.60;99.90
3994;DHT22;2011;48.238;13.948;2023-11-19T02:35:32;4.60;99.90
3994;DHT22;2011;48.238;13.948;2023-11-19T02:38:00;4.60;99.90
3994;DHT22;2011;48.238;13.948;2023-11-19T02:40:29;4.60;99.90
3994;DHT22;2011;48.238;13.948;2023-11-19T02:42:56;4.60;99.90
3994;DHT22;2011;48.238;13.948;2023-11-19T02:45:25;4.50;99.90
3994;DHT22;2011;48.238;13.948;2023-11-19T02:47:53;4.60;99.90
3994;DHT22;2011;48.238;13.948;2023-11-19T02:50:21;4.60;99.90
3994;DHT22;2011;48.238;13.948;2023-11-19T02:52:53;4.60;99.90
3994;DHT22;2011;48.238;13.948;2023-11-19T02:55:22;4.60;99.90
3994;DHT22;2011;48.238;13.948;2023-11-19T02:57:50;4.60;99.90
3994;DHT22;2011;48.238;13.948;2023-11-19T03:00:19;4.60;99.90
3994;DHT22;2011;48.238;13.948;2023-11-19T03:02:51;4.50;99.90
3994;DHT22;2011;48.238;13.948;2023-11-19T03:05:25;4.60;99.90
3994;DHT22;2011;48.238;13.948;2023-11-19T03:07:55;4.60;99.90
3994;DHT22;2011;48.238;13.948;2023-11-19T03:10:22;4.60;99.90
3994;DHT22;2011;48.238;13.948;2023-11-19T03:12:49;4.50;99.90
3994;DHT22;2011;48.238;13.948;2023-11-19T03:15:16;4.50;99.90
3994;DHT22;2011;48.238;13.948;2023-11-19T03:17:43;4.50;99.90
3994;DHT22;2011;48.238;13.948;2023-11-19T03:20:12;4.50;99.90
3994;DHT22;2011;48.238;13.948;2023-11-19T03:22:41;4.50;99.90
3994;DHT22;2011;48.238;13.948;2023-11-19T03:25:09;4.50;99.90
3994;DHT22;2011;48.238;13.948;2023-11-19T03:27:37;4.50;99.90
3994;DHT22;2011;48.238;13.948;2023-11-19T03:30:06;4.50;99.90
3994;DHT22;2011;48.238;13.948;2023-11-19T03:32:33;4.50;99.90
3994;DHT22;2011;48.238;13.948;2023-11-19T03:35:01;4.50;99.90
3994;DHT22;2011;48.238;13.948;2023-11-19T03:37:31;4.50;99.90
3994;DHT22;2011;48.238;13.948;2023-11-19T03:39:59;4.50;99.90
3994;DHT22;2011;48.238;13.948;2023-11-19T03:42:26;4.60;99.90
3994;DHT22;2011;48.238;13.948;2023-11-19T03:44:53;4.60;99.90
3994;DHT22;2011;48.238;13.948;2023-11-19T03:47:20;4.50;99.90
3994;DHT22;2011;48.238;13.948;2023-11-19T03:49:48;4.50;99.90
3994;DHT22;2011;48.238;13.948;2023-11-19T03:52:16;4.50;99.90
3994;DHT22;2011;48.238;13.948;2023-11-19T03:54:44;4.50;99.90
3994;DHT22;2011;48.238;13.948;2023-11-19T03:57:12;4.50;99.90
3994;DHT22;2011;48.238;13.948;2023-11-19T03:59:40;4.50;99.90
3994;DHT22;2011;48.238;13.948;2023-11-19T04:02:07;4.60;99.90
3994;DHT22;2011;48.238;13.948;2023-11-19T04:04:34;4.50;99.90
3994;DHT22;2011;48.238;13.948;2023-11-19T04:07:01;4.50;99.90
3994;DHT22;2011;48.238;13.948;2023-11-19T04:09:29;4.50;99.90
3994;DHT22;2011;48.238;13.948;2023-11-19T04:11:57;4.50;99.90
3994;DHT22;2011;48.238;13.948;2023-11-19T04:14:24;4.50;99.90
3994;DHT22;2011;48.238;13.948;2023-11-19T04:16:51;4.50;99.90
3994;DHT22;2011;48.238;13.948;2023-11-19T04:19:18;4.50;99.90
3994;DHT22;2011;48.238;13.948;2023-11-19T04:21:46;4.50;99.90
3994;DHT22;2011;48.238;13.948;2023-11-19T04:24:13;4.50;99.90
3994;DHT22;2011;48.238;13.948;2023-11-19T04:26:41;4.50;99.90
3994;DHT22;2011;48.238;13.948;2023-11-19T04:29:11;4.40;99.90
3994;DHT22;2011;48.238;13.948;2023-11-19T04:31:39;4.40;99.90
3994;DHT22;2011;48.238;13.948;2023-11-19T04:34:06;4.50;99.90
3994;DHT22;2011;48.238;13.948;2023-11-19T04:36:33;4.50;99.90
3994;DHT22;2011;48.238;13.948;2023-11-19T04:39:00;4.50;99.90
3994;DHT22;2011;48.238;13.948;2023-11-19T04:41:28;4.40;99.90
3994;DHT22;2011;48.238;13.948;2023-11-19T04:43:56;4.40;99.90
3994;DHT22;2011;48.238;13.948;2023-11-19T04:46:24;4.40;99.90
3994;DHT22;2011;48.238;13.948;2023-11-19T04:48:51;4.40;99.90
3994;DHT22;2011;48.238;13.948;2023-11-19T04:51:18;4.30;99.90
3994;DHT22;2011;48.238;13.948;2023-11-19T04:53:45;4.30;99.90
3994;DHT22;2011;48.238;13.948;2023-11-19T04:56:12;4.30;99.90
3994;DHT22;2011;48.238;13.948;2023-11-19T04:58:40;4.20;99.90
3994;DHT22;2011;48.238;13.948;2023-11-19T05:01:13;4.20;99.90
3994;DHT22;2011;48.238;13.948;2023-11-19T05:03:44;4.30;99.90
3994;DHT22;2011;48.238;13.948;2023-11-19T05:06:11;4.30;99.90
3994;DHT22;2011;48.238;13.948;2023-11-19T05:08:38;4.20;99.90
3994;DHT22;2011;48.238;13.948;2023-11-19T05:11:05;4.20;99.90
3994;DHT22;2011;48.238;13.948;2023-11-19T05:13:32;4.20;99.90
3994;DHT22;2011;48.238;13.948;2023-11-19T05:15:59;4.20;99.90
3994;DHT22;2011;48.238;13.948;2023-11-19T05:18:26;4.20;99.90
3994;DHT22;2011;48.238;13.948;2023-11-19T05:20:55;4.10;99.90
3994;DHT22;2011;48.238;13.948;2023-11-19T05:23:22;4.10;99.90
3994;DHT22;2011;48.238;13.948;2023-11-19T05:25:49;4.10;99.90
3994;DHT22;2011;48.238;13.948;2023-11-19T05:28:16;4.10;99.90
3994;DHT22;2011;48.238;13.948;2023-11-19T05:30:43;4.10;99.90
3994;DHT22;2011;48.238;13.948;2023-11-19T05:33:10;4.10;99.90
3994;DHT22;2011;48.238;13.948;2023-11-19T05:35:37;4.10;99.90
3994;DHT22;2011;48.238;13.948;2023-11-19T05:38:06;4.10;99.90
3994;DHT22;2011;48.238;13.948;2023-11-19T05:40:32;4.20;99.90
3994;DHT22;2011;48.238;13.948;2023-11-19T05:43:00;4.20;99.90
3994;DHT22;2011;48.238;13.948;2023-11-19T05:45:27;4.20;99.90
3994;DHT22;2011;48.238;13.948;2023-11-19T05:47:54;4.20;99.90
3994;DHT22;2011;48.238;13.948;2023-11-19T05:50:21;4.30;99.90
3994;DHT22;2011;48.238;13.948;2023-11-19T05:52:48;4.30;99.90
3994;DHT22;2011;48.238;13.948;2023-11-19T05:55:16;4.30;99.90
3994;DHT22;2011;48.238;13.948;2023-11-19T05:57:43;4.30;99.90
3994;DHT22;2011;48.238;13.948;2023-11-19T06:00:11;4.30;99.90
3994;DHT22;2011;48.238;13.948;2023-11-19T06:02:41;4.30;99.90
3994;DHT22;2011;48.238;13.948;2023-11-19T06:05:08;4.30;99.90
3994;DHT22;2011;48.238;13.948;2023-11-19T06:07:35;4.40;99.90
3994;DHT22;2011;48.238;13.948;2023-11-19T06:10:05;4.40;99.90
3994;DHT22;2011;48.238;13.948;2023-11-19T06:12:34;4.40;99.90
3994;DHT22;2011;48.238;13.948;2023-11-19T06:15:04;4.40;99.90
3994;DHT22;2011;48.238;13.948;2023-11-19T06:17:32;4.40;99.90
3994;DHT22;2011;48.238;13.948;2023-11-19T06:19:59;4.40;99.90
3994;DHT22;2011;48.238;13.948;2023-11-19T06:22:26;4.40;99.90
3994;DHT22;2011;48.238;13.948;2023-11-19T06:24:53;4.40;99.90
3994;DHT22;2011;48.238;13.948;2023-11-19T06:27:21;4.40;99.90
3994;DHT22;2011;48.238;13.948;2023-11-19T06:29:50;4.40;99.90
3994;DHT22;2011;48.238;13.948;2023-11-19T06:32:17;4.40;99.90
3994;DHT22;2011;48.238;13.948;2023-11-19T06:34:44;4.40;99.90
3994;DHT22;2011;48.238;13.948;2023-11-19T06:37:11;4.40;99.90
3994;DHT22;2011;48.238;13.948;2023-11-19T06:39:38;4.40;99.90
3994;DHT22;2011;48.238;13.948;2023-11-19T06:42:06;4.40;99.90
3994;DHT22;2011;48.238;13.948;2023-11-19T06:44:34;4.40;99.90
3994;DHT22;2011;48.238;13.948;2023-11-19T06:47:02;4.40;99.90
3994;DHT22;2011;48.238;13.948;2023-11-19T06:49:29;4.40;99.90
3994;DHT22;2011;48.238;13.948;2023-11-19T06:51:56;4.40;99.90
3994;DHT22;2011;48.238;13.948;2023-11-19T06:54:23;4.40;99.90
3994;DHT22;2011;48.238;13.948;2023-11-19T06:56:50;4.40;99.90
3994;DHT22;2011;48.238;13.948;2023-11-19T06:59:18;4.40;99.90
3994;DHT22;2011;48.238;13.948;2023-11-19T07:01:45;4.40;99.90
3994;DHT22;2011;48.238;13.948;2023-11-19T07:04:13;4.40;99.90
3994;DHT22;2011;48.238;13.948;2023-11-19T07:06:40;4.40;99.90
3994;DHT22;2011;48.238;13.948;2023-11-19T07:09:08;4.50;99.90
3994;DHT22;2011;48.238;13.948;2023-11-19T07:11:36;4.40;99.90
3994;DHT22;2011;48.238;13.948;2023-11-19T07:14:04;4.40;99.90
3994;DHT22;2011;48.238;13.948;2023-11-19T07:16:32;4.40;99.90
3994;DHT22;2011;48.238;13.948;2023-11-19T07:19:00;4.40;99.90
3994;DHT22;2011;48.238;13.948;2023-11-19T07:21:28;4.40;99.90
3994;DHT22;2011;48.238;13.948;2023-11-19T07:23:56;4.40;99.90
3994;DHT22;2011;48.238;13.948;2023-11-19T07:26:23;4.40;99.90
3994;DHT22;2011;48.238;13.948;2023-11-19T07:28:50;4.40;99.90
3994;DHT22;2011;48.238;13.948;2023-11-19T07:31:17;4.40;99.90
3994;DHT22;2011;48.238;13.948;2023-11-19T07:33:45;4.50;99.90
3994;DHT22;2011;48.238;13.948;2023-11-19T07:36:13;4.50;99.90
3994;DHT22;2011;48.238;13.948;2023-11-19T07:38:41;4.50;99.90
3994;DHT22;2011;48.238;13.948;2023-11-19T07:41:08;4.50;99.90
3994;DHT22;2011;48.238;13.948;2023-11-19T07:43:38;4.60;99.90
3994;DHT22;2011;48.238;13.948;2023-11-19T07:46:09;4.60;99.90
3994;DHT22;2011;48.238;13.948;2023-11-19T07:48:37;4.60;99.90
3994;DHT22;2011;48.238;13.948;2023-11-19T07:51:04;4.70;99.90
3994;DHT22;2011;48.238;13.948;2023-11-19T07:53:31;4.60;99.90
3994;DHT22;2011;48.238;13.948;2023-11-19T07:56:00;4.60;99.90
3994;DHT22;2011;48.238;13.948;2023-11-19T07:58:27;4.60;99.90
3994;DHT22;2011;48.238;13.948;2023-11-19T08:00:53;4.60;99.90
3994;DHT22;2011;48.238;13.948;2023-11-19T08:03:20;4.60;99.90
3994;DHT22;2011;48.238;13.948;2023-11-19T08:05:48;4.60;99.90
3994;DHT22;2011;48.238;13.948;2023-11-19T08:08:15;4.60;99.90
3994;DHT22;2011;48.238;13.948;2023-11-19T08:10:42;4.60;99.90
3994;DHT22;2011;48.238;13.948;2023-11-19T08:13:11;4.60;99.90
3994;DHT22;2011;48.238;13.948;2023-11-19T08:15:38;4.60;99.90
3994;DHT22;2011;48.238;13.948;2023-11-19T08:18:06;4.60;99.90
3994;DHT22;2011;48.238;13.948;2023-11-19T08:20:33;4.60;99.90
3994;DHT22;2011;48.238;13.948;2023-11-19T08:23:01;4.60;99.90
3994;DHT22;2011;48.238;13.948;2023-11-19T08:25:29;4.60;99.90
3994;DHT22;2011;48.238;13.948;2023-11-19T08:27:55;4.60;99.90
3994;DHT22;2011;48.238;13.948;2023-11-19T08:30:24;4.70;99.90
3994;DHT22;2011;48.238;13.948;2023-11-19T08:32:51;4.60;99.90
3994;DHT22;2011;48.238;13.948;2023-11-19T08:35:17;4.60;99.90
3994;DHT22;2011;48.238;13.948;2023-11-19T08:37:45;4.60;99.90
3994;DHT22;2011;48.238;13.948;2023-11-19T08:40:12;4.60;99.90
3994;DHT22;2011;48.238;13.948;2023-11-19T08:42:40;4.60;99.90
3994;DHT22;2011;48.238;13.948;2023-11-19T08:45:07;4.50;99.90
3994;DHT22;2011;48.238;13.948;2023-11-19T08:47:37;4.50;99.90
3994;DHT22;2011;48.238;13.948;2023-11-19T08:50:04;4.50;99.90
3994;DHT22;2011;48.238;13.948;2023-11-19T08:52:32;4.60;99.90
3994;DHT22;2011;48.238;13.948;2023-11-19T08:54:59;4.50;99.90
3994;DHT22;2011;48.238;13.948;2023-11-19T08:57:26;4.50;99.90
3994;DHT22;2011;48.238;13.948;2023-11-19T08:59:53;4.50;99.90
3994;DHT22;2011;48.238;13.948;2023-11-19T09:02:20;4.50;99.90
3994;DHT22;2011;48.238;13.948;2023-11-19T09:04:48;4.50;99.90
3994;DHT22;2011;48.238;13.948;2023-11-19T09:07:15;4.50;99.90
3994;DHT22;2011;48.238;13.948;2023-11-19T09:09:42;4.60;99.90
3994;DHT22;2011;48.238;13.948;2023-11-19T09:12:09;4.60;99.90
3994;DHT22;2011;48.238;13.948;2023-11-19T09:14:36;4.60;99.90
3994;DHT22;2011;48.238;13.948;2023-11-19T09:17:03;4.60;99.90
3994;DHT22;2011;48.238;13.948;2023-11-19T09:19:32;4.60;99.90
3994;DHT22;2011;48.238;13.948;2023-11-19T09:22:03;4.60;99.90
3994;DHT22;2011;48.238;13.948;2023-11-19T09:24:30;4.60;99.90
3994;DHT22;2011;48.238;13.948;2023-11-19T09:26:57;4.60;99.90
3994;DHT22;2011;48.238;13.948;2023-11-19T09:29:26;4.60;99.90
3994;DHT22;2011;48.238;13.948;2023-11-19T09:31:53;4.60;99.90
3994;DHT22;2011;48.238;13.948;2023-11-19T09:34:20;4.60;99.90
3994;DHT22;2011;48.238;13.948;2023-11-19T09:36:47;4.60;99.90
3994;DHT22;2011;48.238;13.948;2023-11-19T09:39:16;4.60;99.90
3994;DHT22;2011;48.238;13.948;2023-11-19T09:41:44;4.60;99.90
3994;DHT22;2011;48.238;13.948;2023-11-19T09:44:12;4.60;99.90
3994;DHT22;2011;48.238;13.948;2023-11-19T09:46:41;4.70;99.90
3994;DHT22;2011;48.238;13.948;2023-11-19T09:49:08;4.70;99.90
3994;DHT22;2011;48.238;13.948;2023-11-19T09:51:37;4.80;99.90
3994;DHT22;2011;48.238;13.948;2023-11-19T09:54:04;4.80;99.90
3994;DHT22;2011;48.238;13.948;2023-11-19T09:56:33;4.80;99.90
3994;DHT22;2011;48.238;13.948;2023-11-19T09:59:02;4.90;99.90
3994;DHT22;2011;48.238;13.948;2023-11-19T10:01:29;4.80;99.90
3994;DHT22;2011;48.238;13.948;2023-11-19T10:03:57;4.90;99.90
3994;DHT22;2011;48.238;13.948;2023-11-19T10:06:25;4.90;99.90
3994;DHT22;2011;48.238;13.948;2023-11-19T10:08:53;4.90;99.90
3994;DHT22;2011;48.238;13.948;2023-11-19T10:11:21;4.80;99.90
3994;DHT22;2011;48.238;13.948;2023-11-19T10:13:49;4.90;99.90
3994;DHT22;2011;48.238;13.948;2023-11-19T10:16:17;5.00;99.90
3994;DHT22;2011;48.238;13.948;2023-11-19T10:18:45;5.00;99.90
3994;DHT22;2011;48.238;13.948;2023-11-19T10:21:13;5.00;99.90
3994;DHT22;2011;48.238;13.948;2023-11-19T10:23:49;5.10;99.90
3994;DHT22;2011;48.238;13.948;2023-11-19T10:26:18;5.00;99.90
3994;DHT22;2011;48.238;13.948;2023-11-19T10:28:46;5.10;99.90
3994;DHT22;2011;48.238;13.948;2023-11-19T10:31:15;5.10;99.90
3994;DHT22;2011;48.238;13.948;2023-11-19T10:33:42;5.10;99.90
3994;DHT22;2011;48.238;13.948;2023-11-19T10:36:11;5.10;99.90
3994;DHT22;2011;48.238;13.948;2023-11-19T10:38:39;5.10;99.90
3994;DHT22;2011;48.238;13.948;2023-11-19T10:41:06;5.20;99.90
3994;DHT22;2011;48.238;13.948;2023-11-19T10:43:43;5.20;99.90
3994;DHT22;2011;48.238;13.948;2023-11-19T10:46:12;5.20;99.90
3994;DHT22;2011;48.238;13.948;2023-11-19T10:48:40;5.20;99.90
3994;DHT22;2011;48.238;13.948;2023-11-19T10:51:08;5.30;99.90
3994;DHT22;2011;48.238;13.948;2023-11-19T10:53:37;5.30;99.90
3994;DHT22;2011;48.238;13.948;2023-11-19T10:56:10;5.30;99.90
3994;DHT22;2011;48.238;13.948;2023-11-19T10:58:37;5.30;99.90
3994;DHT22;2011;48.238;13.948;2023-11-19T11:01:09;5.40;99.90
3994;DHT22;2011;48.238;13.948;2023-11-19T11:03:40;5.40;99.90
3994;DHT22;2011;48.238;13.948;2023-11-19T11:06:08;5.40;99.90
3994;DHT22;2011;48.238;13.948;2023-11-19T11:08:37;5.50;99.90
3994;DHT22;2011;48.238;13.948;2023-11-19T11:11:06;5.50;99.90
3994;DHT22;2011;48.238;13.948;2023-11-19T11:13:34;5.60;99.90
3994;DHT22;2011;48.238;13.948;2023-11-19T11:16:04;5.70;99.90
3994;DHT22;2011;48.238;13.948;2023-11-19T11:18:33;5.70;99.90
3994;DHT22;2011;48.238;13.948;2023-11-19T11:21:07;5.70;99.90
3994;DHT22;2011;48.238;13.948;2023-11-19T11:23:55;5.80;99.90
3994;DHT22;2011;48.238;13.948;2023-11-19T11:26:44;5.80;99.90
3994;DHT22;2011;48.238;13.948;2023-11-19T11:29:21;5.90;99.90
3994;DHT22;2011;48.238;13.948;2023-11-19T11:31:57;5.90;99.90
3994;DHT22;2011;48.238;13.948;2023-11-19T11:34:53;6.00;99.90
3994;DHT22;2011;48.238;13.948;2023-11-19T11:37:32;6.20;99.90
3994;DHT22;2011;48.238;13.948;2023-11-19T11:40:01;6.20;99.90
3994;DHT22;2011;48.238;13.948;2023-11-19T11:42:34;6.20;99.90
3994;DHT22;2011;48.238;13.948;2023-11-19T11:45:03;6.20;99.90
3994;DHT22;2011;48.238;13.948;2023-11-19T11:48:11;6.40;99.90
3994;DHT22;2011;48.238;13.948;2023-11-19T11:50:49;6.50;99.90
3994;DHT22;2011;48.238;13.948;2023-11-19T11:53:19;6.60;99.90
3994;DHT22;2011;48.238;13.948;2023-11-19T11:55:55;6.50;99.90
3994;DHT22;2011;48.238;13.948;2023-11-19T11:58:30;6.50;99.90
3994;DHT22;2011;48.238;13.948;2023-11-19T12:00:58;6.50;99.90
3994;DHT22;2011;48.238;13.948;2023-11-19T12:03:28;6.60;99.90
3994;DHT22;2011;48.238;13.948;2023-11-19T12:05:56;6.60;99.90
3994;DHT22;2011;48.238;13.948;2023-11-19T12:08:29;6.80;99.90
3994;DHT22;2011;48.238;13.948;2023-11-19T12:11:01;6.90;99.90
3994;DHT22;2011;48.238;13.948;2023-11-19T12:13:53;6.90;99.90
3994;DHT22;2011;48.238;13.948;2023-11-19T12:16:24;6.90;99.90
3994;DHT22;2011;48.238;13.948;2023-11-19T12:18:53;6.90;99.90
3994;DHT22;2011;48.238;13.948;2023-11-19T12:21:30;6.90;99.90
3994;DHT22;2011;48.238;13.948;2023-11-19T12:24:00;7.00;99.90
3994;DHT22;2011;48.238;13.948;2023-11-19T12:26:37;7.20;99.90
3994;DHT22;2011;48.238;13.948;2023-11-19T12:29:05;7.30;99.90
3994;DHT22;2011;48.238;13.948;2023-11-19T12:31:33;7.40;99.90
3994;DHT22;2011;48.238;13.948;2023-11-19T12:34:09;7.50;99.90
3994;DHT22;2011;48.238;13.948;2023-11-19T12:36:41;7.70;99.90
3994;DHT22;2011;48.238;13.948;2023-11-19T12:39:10;7.80;99.90
3994;DHT22;2011;48.238;13.948;2023-11-19T12:41:50;8.00;99.90
3994;DHT22;2011;48.238;13.948;2023-11-19T12:44:17;8.10;99.90
3994;DHT22;2011;48.238;13.948;2023-11-19T12:46:45;8.10;99.90
3994;DHT22;2011;48.238;13.948;2023-11-19T12:49:12;8.10;99.90
3994;DHT22;2011;48.238;13.948;2023-11-19T12:51:39;8.20;99.90
3994;DHT22;2011;48.238;13.948;2023-11-19T12:54:06;8.20;99.90
3994;DHT22;2011;48.238;13.948;2023-11-19T12:56:35;8.30;99.90
3994;DHT22;2011;48.238;13.948;2023-11-19T12:59:13;8.30;99.90
3994;DHT22;2011;48.238;13.948;2023-11-19T13:01:40;8.30;99.90
3994;DHT22;2011;48.238;13.948;2023-11-19T13:04:18;8.30;99.90
3994;DHT22;2011;48.238;13.948;2023-11-19T13:06:45;8.30;99.90
3994;DHT22;2011;48.238;13.948;2023-11-19T13:09:22;8.20;99.90
3994;DHT22;2011;48.238;13.948;2023-11-19T13:11:51;8.10;99.90
3994;DHT22;2011;48.238;13.948;2023-11-19T13:14:19;8.10;99.90
3994;DHT22;2011;48.238;13.948;2023-11-19T13:16:47;8.10;99.90
3994;DHT22;2011;48.238;13.948;2023-11-19T13:19:15;8.20;99.90
3994;DHT22;2011;48.238;13.948;2023-11-19T13:21:44;8.30;99.90
3994;DHT22;2011;48.238;13.948;2023-11-19T13:24:13;8.30;99.90
3994;DHT22;2011;48.238;13.948;2023-11-19T13:26:40;8.40;99.90
3994;DHT22;2011;48.238;13.948;2023-11-19T13:29:09;8.40;99.90
3994;DHT22;2011;48.238;13.948;2023-11-19T13:31:37;8.50;99.90
3994;DHT22;2011;48.238;13.948;2023-11-19T13:34:04;8.60;99.90
3994;DHT22;2011;48.238;13.948;2023-11-19T13:36:33;8.60;99.90
3994;DHT22;2011;48.238;13.948;2023-11-19T13:39:01;8.70;99.90
3994;DHT22;2011;48.238;13.948;2023-11-19T13:41:28;8.90;99.90
3994;DHT22;2011;48.238;13.948;2023-11-19T13:43:56;9.00;99.90
3994;DHT22;2011;48.238;13.948;2023-11-19T13:46:24;9.10;99.90
3994;DHT22;2011;48.238;13.948;2023-11-19T13:48:52;9.20;99.90
3994;DHT22;2011;48.238;13.948;2023-11-19T13:51:19;9.20;99.90
3994;DHT22;2011;48.238;13.948;2023-11-19T13:53:46;9.10;99.90
3994;DHT22;2011;48.238;13.948;2023-11-19T13:56:14;9.00;99.90
3994;DHT22;2011;48.238;13.948;2023-11-19T13:58:41;9.00;99.90
3994;DHT22;2011;48.238;13.948;2023-11-19T14:01:08;9.10;99.90
3994;DHT22;2011;48.238;13.948;2023-11-19T14:03:40;9.20;99.90
3994;DHT22;2011;48.238;13.948;2023-11-19T14:06:08;9.30;99.90
3994;DHT22;2011;48.238;13.948;2023-11-19T14:08:35;9.40;99.90
3994;DHT22;2011;48.238;13.948;2023-11-19T14:11:03;9.50;99.90
3994;DHT22;2011;48.238;13.948;2023-11-19T14:13:30;9.50;99.90
3994;DHT22;2011;48.238;13.948;2023-11-19T14:15:58;9.60;99.90
3994;DHT22;2011;48.238;13.948;2023-11-19T14:18:25;9.60;99.90
3994;DHT22;2011;48.238;13.948;2023-11-19T14:20:55;9.70;99.90
3994;DHT22;2011;48.238;13.948;2023-11-19T14:23:24;9.70;99.90
3994;DHT22;2011;48.238;13.948;2023-11-19T14:25:52;9.70;99.90
3994;DHT22;2011;48.238;13.948;2023-11-19T14:28:19;9.80;99.90
3994;DHT22;2011;48.238;13.948;2023-11-19T14:30:46;9.70;99.90
3994;DHT22;2011;48.238;13.948;2023-11-19T14:33:19;9.70;99.90
3994;DHT22;2011;48.238;13.948;2023-11-19T14:35:46;9.60;99.90
3994;DHT22;2011;48.238;13.948;2023-11-19T14:38:15;9.50;99.90
3994;DHT22;2011;48.238;13.948;2023-11-19T14:40:43;9.50;99.90
3994;DHT22;2011;48.238;13.948;2023-11-19T14:43:10;9.50;99.90
3994;DHT22;2011;48.238;13.948;2023-11-19T14:45:37;9.50;99.90
3994;DHT22;2011;48.238;13.948;2023-11-19T14:48:04;9.40;99.90
3994;DHT22;2011;48.238;13.948;2023-11-19T14:50:32;9.40;99.90
3994;DHT22;2011;48.238;13.948;2023-11-19T14:52:59;9.40;99.90
3994;DHT22;2011;48.238;13.948;2023-11-19T14:55:27;9.40;99.90
3994;DHT22;2011;48.238;13.948;2023-11-19T14:57:54;9.40;99.90
3994;DHT22;2011;48.238;13.948;2023-11-19T15:00:22;9.30;99.90
3994;DHT22;2011;48.238;13.948;2023-11-19T15:02:51;9.30;99.90
3994;DHT22;2011;48.238;13.948;2023-11-19T15:05:18;9.20;99.90
3994;DHT22;2011;48.238;13.948;2023-11-19T15:07:45;9.10;99.90
3994;DHT22;2011;48.238;13.948;2023-11-19T15:10:14;9.10;99.90
3994;DHT22;2011;48.238;13.948;2023-11-19T15:12:42;9.00;99.90
3994;DHT22;2011;48.238;13.948;2023-11-19T15:15:09;9.00;99.90
3994;DHT22;2011;48.238;13.948;2023-11-19T15:17:39;8.90;99.90
3994;DHT22;2011;48.238;13.948;2023-11-19T15:20:07;8.90;99.90
3994;DHT22;2011;48.238;13.948;2023-11-19T15:22:34;8.80;99.90
3994;DHT22;2011;48.238;13.948;2023-11-19T15:25:01;8.70;99.90
3994;DHT22;2011;48.238;13.948;2023-11-19T15:27:28;8.70;99.90
3994;DHT22;2011;48.238;13.948;2023-11-19T15:29:57;8.60;99.90
3994;DHT22;2011;48.238;13.948;2023-11-19T15:32:24;8.60;99.90
3994;DHT22;2011;48.238;13.948;2023-11-19T15:34:51;8.60;99.90
3994;DHT22;2011;48.238;13.948;2023-11-19T15:37:18;8.60;99.90
3994;DHT22;2011;48.238;13.948;2023-11-19T15:39:45;8.60;99.90
3994;DHT22;2011;48.238;13.948;2023-11-19T15:42:13;8.60;99.90
3994;DHT22;2011;48.238;13.948;2023-11-19T15:44:40;8.60;99.90
3994;DHT22;2011;48.238;13.948;2023-11-19T15:47:08;8.50;99.90
3994;DHT22;2011;48.238;13.948;2023-11-19T15:49:35;8.50;99.90
3994;DHT22;2011;48.238;13.948;2023-11-19T15:52:03;8.50;99.90
3994;DHT22;2011;48.238;13.948;2023-11-19T15:54:31;8.40;99.90
3994;DHT22;2011;48.238;13.948;2023-11-19T15:56:58;8.30;99.90
3994;DHT22;2011;48.238;13.948;2023-11-19T15:59:25;8.30;99.90
3994;DHT22;2011;48.238;13.948;2023-11-19T16:01:52;8.30;99.90
3994;DHT22;2011;48.238;13.948;2023-11-19T16:04:20;8.30;99.90
3994;DHT22;2011;48.238;13.948;2023-11-19T16:06:47;8.30;99.90
3994;DHT22;2011;48.238;13.948;2023-11-19T16:09:14;8.30;99.90